Time;durP1;ratioP1;P1;durP2;ratioP2;P2;SDS_P1;SDS_P2;PMS_P1;PMS_P2;Temp;Humidity;BMP_temperature;BMP_pressure;BME280_temperature;BME280_humidity;BME280_pressure;Samples;Min_cycle;Max_cycle;Signal;HPM_P1;HPM_P2
2021/02/15 00:03:57;;;;;;;0.90;0.90;;;;;;;-3.82;52.82;98514.72;299395;256;63005;-53
2021/02/15 00:08:59;;;;;;;0.90;0.90;;;;;;;-3.78;53.67;98512.56;299395;257;63009;-53
2021/02/15 00:14:00;;;;;;;0.90;0.90;;;;;;;-3.86;54.15;98508.09;299395;213;63005;-54
2021/02/15 00:19:02;;;;;;;0.90;0.90;;;;;;;-3.93;55.56;98517.69;299395;197;63009;-53
2021/02/15 00:24:04;;;;;;;0.90;0.90;;;;;;;-3.90;54.62;98516.53;299395;220;63004;-55
2021/02/15 00:29:06;;;;;;;0.90;0.90;;;;;;;-3.90;56.57;98524.47;299395;225;63009;-54
2021/02/15 00:34:06;;;;;;;0.90;0.90;;;;;;;-3.88;54.49;98517.19;299395;213;63005;-54
2021/02/15 00:39:08;;;;;;;0.90;0.90;;;;;;;-3.83;54.21;98512.25;299395;212;63004;-54
2021/02/15 00:44:09;;;;;;;0.90;0.90;;;;;;;-3.80;56.60;98509.25;299395;257;63005;-53
2021/02/15 00:49:10;;;;;;;0.90;0.90;;;;;;;-3.86;57.19;98500.13;299395;202;63009;-54
2021/02/15 00:54:12;;;;;;;0.90;0.90;;;;;;;-3.88;57.87;98495.97;299395;202;63011;-54
2021/02/15 00:59:13;;;;;;;0.90;0.90;;;;;;;-3.85;55.39;98471.78;299395;204;63009;-55
2021/02/15 01:04:14;;;;;;;0.90;0.90;;;;;;;-3.75;53.40;98461.84;299395;211;63005;-54
2021/02/15 01:09:15;;;;;;;0.93;0.93;;;;;;;-3.79;52.20;98439.28;299395;341;63008;-54
2021/02/15 01:14:16;;;;;;;0.90;0.90;;;;;;;-3.68;51.14;98430.19;299395;229;63004;-56
2021/02/15 01:19:17;;;;;;;0.90;0.90;;;;;;;-3.74;53.11;98429.03;299395;395;63008;-53
2021/02/15 01:24:19;;;;;;;0.90;0.90;;;;;;;-3.72;51.84;98425.22;299395;205;63004;-54
2021/02/15 01:29:21;;;;;;;1.00;1.00;;;;;;;-3.74;52.75;98429.03;299395;197;63009;-54
2021/02/15 01:34:23;;;;;;;1.00;1.00;;;;;;;-3.78;53.80;98433.00;299395;203;63005;-54
2021/02/15 01:39:24;;;;;;;0.90;0.90;;;;;;;-3.93;54.59;98434.66;299395;230;63009;-54
2021/02/15 01:44:25;;;;;;;0.90;0.90;;;;;;;-4.08;55.86;98424.66;299395;205;63005;-55
2021/02/15 01:49:26;;;;;;;0.98;0.98;;;;;;;-4.21;55.21;98419.03;299395;231;63020;-54
2021/02/15 01:54:27;;;;;;;0.90;0.90;;;;;;;-4.15;52.06;98401.63;299395;221;63004;-55
2021/02/15 01:59:28;;;;;;;0.90;0.90;;;;;;;-4.19;57.82;98422.34;299395;243;63009;-55
2021/02/15 02:04:32;;;;;;;0.90;0.90;;;;;;;-4.31;53.46;98402.44;299395;245;63005;-56
2021/02/15 02:09:34;;;;;;;0.90;0.90;;;;;;;-4.29;54.55;98411.06;299417;214;63009;-54
2021/02/15 02:14:39;;;;;;;0.90;0.90;;;;;;;-4.43;57.20;98425.75;299395;202;63004;-55
2021/02/15 02:19:43;;;;;;;0.90;0.90;;;;;;;-4.59;58.20;98427.53;299395;342;63009;-52
2021/02/15 02:24:44;;;;;;;0.90;0.90;;;;;;;-4.72;58.19;98434.06;299417;230;63004;-54
2021/02/15 02:29:45;;;;;;;0.90;0.90;;;;;;;-4.88;56.23;98441.97;299395;365;63017;-54
2021/02/15 02:34:46;;;;;;;0.90;0.90;;;;;;;-4.91;55.70;98434.34;299395;230;63005;-54
2021/02/15 02:39:47;;;;;;;0.90;0.90;;;;;;;-4.85;54.40;98436.31;299395;197;63028;-54
2021/02/15 02:44:48;;;;;;;0.90;0.90;;;;;;;-4.76;54.77;98430.09;299394;290;64004;-54
2021/02/15 02:50:00;;;;;;;0.90;0.90;;;;;;;-4.74;56.19;98438.69;299395;207;63009;-54
2021/02/15 02:55:01;;;;;;;0.90;0.90;;;;;;;-4.72;56.64;98443.84;299395;255;63005;-63
2021/02/15 03:00:09;;;;;;;0.90;0.90;;;;;;;-4.67;55.57;98433.59;299395;228;63009;-55
2021/02/15 03:05:12;;;;;;;0.90;0.90;;;;;;;-4.57;52.15;98428.19;299395;204;63005;-54
2021/02/15 03:10:15;;;;;;;0.90;0.90;;;;;;;-4.48;54.20;98433.34;299395;219;63029;-54
2021/02/15 03:15:16;;;;;;;0.90;0.90;;;;;;;-4.44;50.71;98404.69;299439;318;125017;-64
2021/02/15 03:20:19;;;;;;;0.90;0.90;;;;;;;-4.31;49.09;98405.09;299395;502;63009;-54
2021/02/15 03:25:19;;;;;;;1.00;1.00;;;;;;;-4.19;47.85;98390.53;299395;232;63005;-55
2021/02/15 03:30:22;;;;;;;1.00;1.00;;;;;;;-4.24;49.37;98392.84;299395;202;63009;-55
2021/02/15 03:35:22;;;;;;;0.98;0.98;;;;;;;-4.12;47.38;98380.91;299395;205;63005;-63
2021/02/15 03:40:24;;;;;;;0.93;0.93;;;;;;;-4.21;47.99;98383.75;299395;250;63009;-55
2021/02/15 03:45:25;;;;;;;0.90;0.90;;;;;;;-4.29;49.29;98387.19;299395;233;63004;-55
2021/02/15 03:50:26;;;;;;;0.90;0.90;;;;;;;-4.45;52.07;98395.09;299395;280;63023;-55
2021/02/15 03:55:26;;;;;;;0.90;0.90;;;;;;;-4.52;50.29;98378.22;299394;227;64005;-64
2021/02/15 04:00:27;;;;;;;0.90;0.90;;;;;;;-4.41;49.33;98359.34;299395;228;63009;-63
2021/02/15 04:05:29;;;;;;;0.90;0.90;;;;;;;-4.46;50.04;98364.28;299395;196;63005;-56
2021/02/15 04:10:30;;;;;;;0.90;0.90;;;;;;;-4.51;50.47;98353.38;299395;336;63009;-55
2021/02/15 04:15:31;;;;;;;0.90;0.90;;;;;;;-4.47;50.82;98352.03;299395;228;63004;-55
2021/02/15 04:20:33;;;;;;;0.90;0.90;;;;;;;-4.47;50.20;98339.63;299395;207;63009;-55
2021/02/15 04:25:34;;;;;;;0.90;0.90;;;;;;;-4.59;52.72;98346.25;299395;438;63005;-55
2021/02/15 04:30:35;;;;;;;0.90;0.90;;;;;;;-4.60;51.54;98359.66;299395;213;63008;-55
2021/02/15 04:35:36;;;;;;;1.00;1.00;;;;;;;-4.61;51.74;98344.75;299395;258;63004;-54
2021/02/15 04:40:38;;;;;;;1.00;1.00;;;;;;;-4.67;52.29;98345.38;299395;228;63009;-54
2021/02/15 04:45:39;;;;;;;0.90;0.90;;;;;;;-4.72;52.63;98336.09;299395;202;63004;-56
2021/02/15 04:50:40;;;;;;;1.00;1.00;;;;;;;-4.73;52.47;98329.13;299395;252;63009;-55
2021/02/15 04:55:41;;;;;;;1.00;1.00;;;;;;;-4.67;53.21;98326.84;299395;339;63005;-55
2021/02/15 05:00:42;;;;;;;0.90;0.90;;;;;;;-4.63;52.45;98320.22;299395;213;63009;-55
2021/02/15 05:05:43;;;;;;;0.90;0.90;;;;;;;-4.67;53.91;98322.38;299395;224;63010;-55
2021/02/15 05:10:44;;;;;;;0.90;0.90;;;;;;;-4.48;52.58;98308.00;299395;204;63009;-56
2021/02/15 05:15:44;;;;;;;0.90;0.90;;;;;;;-4.48;51.94;98292.09;299395;222;63000;-55
2021/02/15 05:20:45;;;;;;;0.90;0.90;;;;;;;-4.47;51.99;98285.81;299395;227;63021;-55
2021/02/15 05:25:47;;;;;;;0.90;0.90;;;;;;;-4.46;51.95;98293.59;299394;232;63992;-56
2021/02/15 05:30:48;;;;;;;0.90;0.90;;;;;;;-4.49;52.06;98304.50;299395;204;63029;-56
2021/02/15 05:35:49;;;;;;;0.90;0.90;;;;;;;-4.51;52.75;98300.41;299395;452;63004;-55
2021/02/15 05:40:50;;;;;;;0.90;0.90;;;;;;;-4.51;52.64;98297.75;299395;424;63009;-56
2021/02/15 05:45:51;;;;;;;0.90;0.90;;;;;;;-4.54;52.98;98300.72;299395;219;63004;-56
2021/02/15 05:50:52;;;;;;;0.90;0.90;;;;;;;-4.46;52.25;98303.38;299395;212;63009;-64
2021/02/15 05:55:54;;;;;;;0.90;0.90;;;;;;;-4.49;53.97;98306.34;299395;210;63005;-64
2021/02/15 06:01:04;;;;;;;0.90;0.90;;;;;;;-4.55;53.11;98304.38;299395;231;63008;-55
2021/02/15 06:06:37;;;;;;;0.90;0.90;;;;;;;-4.55;53.50;98299.91;299395;595;63004;-55
2021/02/15 06:12:13;;;;;;;1.00;1.00;;;;;;;-4.54;53.94;98298.06;299395;202;63009;-56
2021/02/15 06:17:30;;;;;;;0.93;0.93;;;;;;;-4.53;53.63;98297.91;299395;272;63005;-59
2021/02/15 06:22:31;;;;;;;0.98;0.98;;;;;;;-4.45;53.13;98266.09;299395;213;63009;-55
2021/02/15 06:27:34;;;;;;;1.00;1.00;;;;;;;-4.47;53.33;98270.75;299395;199;63009;-57
2021/02/15 06:32:42;;;;;;;0.90;0.90;;;;;;;-4.46;53.12;98253.84;299395;197;63009;-57
2021/02/15 06:37:44;;;;;;;1.00;1.00;;;;;;;-4.50;53.98;98251.69;299395;196;63004;-55
2021/02/15 06:42:52;;;;;;;0.90;0.90;;;;;;;-4.56;54.74;98260.31;299395;205;63009;-56
2021/02/15 06:47:59;;;;;;;0.90;0.90;;;;;;;-4.55;54.22;98276.06;299395;233;63005;-56
2021/02/15 06:53:02;;;;;;;0.90;0.90;;;;;;;-4.62;55.36;98293.59;299395;218;63008;-55
2021/02/15 06:58:03;;;;;;;0.90;0.90;;;;;;;-4.59;56.21;98287.13;299395;510;63013;-63
2021/02/15 07:03:05;;;;;;;0.90;0.90;;;;;;;-4.58;55.53;98288.78;299395;224;63019;-55
2021/02/15 07:08:09;;;;;;;0.90;0.90;;;;;;;-4.54;55.47;98288.31;299395;749;63004;-56
2021/02/15 07:13:17;;;;;;;1.00;1.00;;;;;;;-4.37;55.79;98281.19;299417;802;63004;-55
2021/02/15 07:18:21;;;;;;;1.00;1.00;;;;;;;-4.32;56.52;98300.06;299395;286;63005;-56
2021/02/15 07:23:24;;;;;;;0.90;0.90;;;;;;;-4.25;56.23;98295.78;299417;221;63009;-55
2021/02/15 07:28:32;;;;;;;0.90;0.90;;;;;;;-4.13;55.83;98299.75;299395;245;63004;-54
2021/02/15 07:33:36;;;;;;;0.90;0.90;;;;;;;-3.83;53.97;98290.31;299395;223;63028;-57
2021/02/15 07:38:56;;;;;;;0.90;0.90;;;;;;;-3.80;54.48;98289.09;299377;219;125005;-56
2021/02/15 07:43:59;;;;;;;0.90;0.90;;;;;;;-3.71;54.22;98277.50;299395;222;63009;-55
2021/02/15 07:49:22;;;;;;;0.90;0.90;;;;;;;-3.63;55.91;98285.44;299395;223;63005;-55
2021/02/15 07:54:58;;;;;;;0.90;0.90;;;;;;;-3.49;54.16;98275.97;299395;216;63009;-54
2021/02/15 08:00:17;;;;;;;;;;;;;;;-3.43;53.49;98278.75;299996;983;6000;-54
2021/02/15 08:05:49;;;;;;;0.90;0.90;;;;;;;-3.19;52.47;98277.84;299400;254;63004;-55
2021/02/15 08:10:50;;;;;;;0.90;0.90;;;;;;;-3.12;52.76;98291.28;299395;220;63005;-54
2021/02/15 08:15:53;;;;;;;0.90;0.90;;;;;;;-3.19;52.40;98277.03;299395;199;63009;-55
2021/02/15 08:21:11;;;;;;;0.90;0.90;;;;;;;-3.11;53.29;98282.28;299395;384;63004;-55
2021/02/15 08:26:19;;;;;;;1.00;1.00;;;;;;;-2.90;53.11;98295.81;299396;202;63009;-55
2021/02/15 08:31:22;;;;;;;0.88;0.88;;;;;;;-2.73;51.73;98278.78;299396;229;63005;-54
2021/02/15 08:36:25;;;;;;;0.90;0.90;;;;;;;-2.51;52.03;98282.47;299396;232;63008;-54
2021/02/15 08:41:37;;;;;;;0.90;0.90;;;;;;;-2.49;54.29;98300.91;299396;245;63004;-54
2021/02/15 08:46:41;;;;;;;0.90;0.90;;;;;;;-2.42;53.49;98292.03;299396;212;63009;-67
2021/02/15 08:51:46;;;;;;;0.90;0.90;;;;;;;-2.42;53.30;98293.84;299396;230;63004;-54
2021/02/15 08:56:50;;;;;;;0.90;0.90;;;;;;;-2.37;53.71;98294.97;299396;265;63009;-55
2021/02/15 09:01:51;;;;;;;0.90;0.90;;;;;;;-2.26;53.61;98307.03;299396;204;63005;-55
2021/02/15 09:06:52;;;;;;;0.90;0.90;;;;;;;-2.21;55.30;98304.69;299396;272;64008;-62
2021/02/15 09:11:57;;;;;;;0.90;0.90;;;;;;;-2.14;54.44;98302.97;299397;289;63004;-53
2021/02/15 09:17:27;;;;;;;0.90;0.90;;;;;;;-1.95;54.72;98303.47;299418;214;63009;-54
2021/02/15 09:22:46;;;;;;;0.80;0.80;;;;;;;-1.69;54.79;98290.59;299396;217;63001;-54
2021/02/15 09:27:57;;;;;;;0.90;0.90;;;;;;;-1.55;54.78;98276.50;299396;199;63009;-53
2021/02/15 09:33:32;;;;;;;0.82;0.82;;;;;;;-1.66;55.50;98282.25;299396;224;63005;-64
2021/02/15 09:38:42;;;;;;;0.90;0.90;;;;;;;-1.47;55.96;98276.41;299418;196;63009;-54
2021/02/15 09:43:52;;;;;;;0.90;0.90;;;;;;;-1.37;55.47;98276.94;299396;248;63004;-55
2021/02/15 09:49:07;;;;;;;0.80;0.80;;;;;;;-1.26;55.19;98256.22;299396;196;63009;-65
2021/02/15 09:54:32;;;;;;;0.90;0.90;;;;;;;-1.20;55.97;98268.78;299418;257;63010;-62
2021/02/15 09:59:37;;;;;;;0.80;0.80;;;;;;;-1.07;55.11;98255.66;299379;223;125005;-65
2021/02/15 10:04:43;;;;;;;0.90;0.90;;;;;;;-1.01;55.69;98245.06;299397;305;63009;-64
2021/02/15 10:09:46;;;;;;;0.82;0.82;;;;;;;-0.90;54.32;98241.09;299395;207;63005;-64
2021/02/15 10:14:50;;;;;;;0.90;0.90;;;;;;;-0.91;55.12;98227.97;299395;197;63009;-65
2021/02/15 10:19:54;;;;;;;0.80;0.80;;;;;;;-0.89;54.53;98231.25;299417;287;63004;-65
2021/02/15 10:24:55;;;;;;;0.90;0.90;;;;;;;-0.91;54.80;98228.78;299439;222;63009;-54
2021/02/15 10:29:59;;;;;;;0.90;0.90;;;;;;;-0.98;55.48;98227.06;299394;267;63992;-52
2021/02/15 10:35:00;;;;;;;0.90;0.90;;;;;;;-1.03;55.89;98217.78;299417;241;63018;-64
2021/02/15 10:40:01;;;;;;;0.80;0.80;;;;;;;-1.00;56.73;98208.59;299395;298;63005;-52
2021/02/15 10:45:03;;;;;;;0.80;0.80;;;;;;;-1.00;56.18;98197.94;299395;236;63018;-52
2021/02/15 10:50:06;;;;;;;0.80;0.80;;;;;;;-0.86;55.84;98210.41;299395;251;63004;-53
2021/02/15 10:55:08;;;;;;;0.80;0.80;;;;;;;-0.87;57.05;98202.59;299395;203;63009;-53
2021/02/15 11:00:11;;;;;;;0.80;0.80;;;;;;;-0.75;56.53;98201.91;299395;199;63005;-52
2021/02/15 11:05:13;;;;;;;0.82;0.82;;;;;;;-0.65;56.21;98200.75;299395;252;63009;-53
2021/02/15 11:10:19;;;;;;;0.80;0.80;;;;;;;-0.44;54.65;98193.59;299395;247;63005;-52
2021/02/15 11:15:20;;;;;;;0.80;0.80;;;;;;;-0.29;55.48;98180.19;299395;222;63009;-54
2021/02/15 11:20:21;;;;;;;1.15;1.15;;;;;;;-0.22;55.51;98173.06;299395;319;63004;-56
2021/02/15 11:25:22;;;;;;;0.80;0.80;;;;;;;0.03;53.72;98157.44;299395;220;63009;-54
2021/02/15 11:30:26;;;;;;;0.90;0.90;;;;;;;0.19;52.98;98141.13;299395;210;63005;-53
2021/02/15 11:35:28;;;;;;;0.90;0.90;;;;;;;0.38;53.25;98144.09;299395;221;63009;-54
2021/02/15 11:40:29;;;;;;;0.80;0.80;;;;;;;0.47;52.65;98129.56;299395;198;63004;-54
2021/02/15 11:45:30;;;;;;;0.90;0.90;;;;;;;0.58;52.77;98124.50;299395;251;63005;-53
2021/02/15 11:50:31;;;;;;;0.80;0.80;;;;;;;0.62;53.41;98127.59;299395;243;63004;-53
2021/02/15 11:55:32;;;;;;;0.80;0.80;;;;;;;0.64;53.34;98139.72;299395;237;63009;-53
2021/02/15 12:00:33;;;;;;;0.80;0.80;;;;;;;0.79;52.92;98125.37;299395;222;63000;-53
2021/02/15 12:05:35;;;;;;;0.80;0.80;;;;;;;0.97;52.62;98120.31;299395;253;63008;-53
2021/02/15 12:10:36;;;;;;;0.80;0.80;;;;;;;1.12;51.92;98120.13;299395;238;63004;-54
2021/02/15 12:15:37;;;;;;;0.80;0.80;;;;;;;1.23;52.34;98116.84;299395;252;63009;-55
2021/02/15 12:20:39;;;;;;;0.80;0.80;;;;;;;1.25;51.96;98107.59;299395;217;63004;-55
2021/02/15 12:25:44;;;;;;;0.80;0.80;;;;;;;1.27;52.71;98097.53;299395;243;63009;-54
2021/02/15 12:30:46;;;;;;;0.80;0.80;;;;;;;1.33;51.74;98080.66;299395;274;63005;-53
2021/02/15 12:35:47;;;;;;;0.80;0.80;;;;;;;1.33;52.74;98086.03;299395;206;63008;-53
2021/02/15 12:40:49;;;;;;;0.80;0.80;;;;;;;1.45;52.38;98072.84;299395;213;63004;-53
2021/02/15 12:45:51;;;;;;;0.90;0.90;;;;;;;1.59;51.09;98057.63;299395;224;63011;-55
2021/02/15 12:50:54;;;;;;;0.90;0.90;;;;;;;1.72;51.14;98052.25;299395;227;63004;-53
2021/02/15 12:55:54;;;;;;;0.80;0.80;;;;;;;1.81;51.33;98051.00;299395;266;63009;-55
2021/02/15 13:00:56;;;;;;;0.80;0.80;;;;;;;1.94;50.79;98044.78;299395;202;63010;-53
2021/02/15 13:05:56;;;;;;;0.80;0.80;;;;;;;1.94;51.77;98037.59;299395;273;63009;-54
2021/02/15 13:10:58;;;;;;;0.80;0.80;;;;;;;2.06;51.33;98020.88;299395;220;63004;-53
2021/02/15 13:15:59;;;;;;;0.80;0.80;;;;;;;2.10;51.75;98027.44;299395;222;63009;-54
2021/02/15 13:21:00;;;;;;;0.80;0.80;;;;;;;2.16;51.63;98015.88;299395;247;63005;-55
2021/02/15 13:26:01;;;;;;;0.80;0.80;;;;;;;2.14;52.69;98001.88;299395;203;63009;-53
2021/02/15 13:31:03;;;;;;;0.80;0.80;;;;;;;2.16;51.33;97989.94;299395;227;63000;-55
2021/02/15 13:36:05;;;;;;;0.80;0.80;;;;;;;2.19;51.33;97994.03;299395;290;63009;-53
2021/02/15 13:41:06;;;;;;;0.80;0.80;;;;;;;2.34;51.74;97997.28;299395;363;63004;-54
2021/02/15 13:46:07;;;;;;;0.80;0.80;;;;;;;2.46;51.65;97990.19;299395;292;63009;-57
2021/02/15 13:51:11;;;;;;;0.80;0.80;;;;;;;2.46;51.88;97979.47;299395;246;63005;-52
2021/02/15 13:56:12;;;;;;;0.80;0.80;;;;;;;2.44;51.87;97960.13;299417;209;63009;-53
2021/02/15 14:01:14;;;;;;;0.80;0.80;;;;;;;2.27;52.60;97956.31;299395;275;63005;-53
2021/02/15 14:06:15;;;;;;;0.80;0.80;;;;;;;2.19;52.70;97968.09;299395;204;63009;-52
2021/02/15 14:11:19;;;;;;;0.80;0.80;;;;;;;2.13;53.37;97968.94;299395;235;63004;-52
2021/02/15 14:16:20;;;;;;;0.80;0.80;;;;;;;2.26;52.24;97957.34;299395;244;63009;-52
2021/02/15 14:21:23;;;;;;;0.80;0.80;;;;;;;2.23;53.08;97947.06;299395;197;63005;-53
2021/02/15 14:26:27;;;;;;;0.80;0.80;;;;;;;2.32;53.10;97951.16;299395;207;63009;-53
2021/02/15 14:31:28;;;;;;;0.80;0.80;;;;;;;2.28;53.38;97950.75;299439;279;63005;-52
2021/02/15 14:36:29;;;;;;;0.80;0.80;;;;;;;2.25;52.87;97951.16;299395;235;63009;-58
2021/02/15 14:41:30;;;;;;;0.80;0.80;;;;;;;2.19;53.56;97956.56;299395;221;63017;-54
2021/02/15 14:46:32;;;;;;;0.80;0.80;;;;;;;2.11;54.82;97960.28;299395;212;63009;-58
2021/02/15 14:51:34;;;;;;;0.80;0.80;;;;;;;2.15;54.80;97963.38;299395;202;63005;-57
2021/02/15 14:56:35;;;;;;;0.80;0.80;;;;;;;2.12;54.01;97950.41;299395;215;63008;-53
2021/02/15 15:01:36;;;;;;;0.80;0.80;;;;;;;2.16;54.23;97956.97;299395;272;63004;-53
2021/02/15 15:06:37;;;;;;;0.70;0.70;;;;;;;2.18;54.04;97957.59;299395;232;63009;-52
2021/02/15 15:11:38;;;;;;;0.80;0.80;;;;;;;2.24;54.34;97954.06;299395;218;63004;-53
2021/02/15 15:16:39;;;;;;;0.80;0.80;;;;;;;2.27;53.93;97959.00;299395;206;63012;-53
2021/02/15 15:21:42;;;;;;;0.80;0.80;;;;;;;2.27;54.14;97948.28;299395;197;63005;-53
2021/02/15 15:26:44;;;;;;;0.80;0.80;;;;;;;2.23;54.93;97949.75;299395;204;63008;-53
2021/02/15 15:31:45;;;;;;;0.80;0.80;;;;;;;2.14;55.19;97941.13;299395;258;63004;-53
2021/02/15 15:36:46;;;;;;;0.80;0.80;;;;;;;2.10;56.32;97928.37;299395;196;63009;-57
2021/02/15 15:41:50;;;;;;;0.70;0.70;;;;;;;1.98;57.96;97928.25;299395;196;63004;-53
2021/02/15 15:46:55;;;;;;;0.70;0.70;;;;;;;1.80;59.06;97920.91;299417;333;63009;-53
2021/02/15 15:51:55;;;;;;;0.80;0.80;;;;;;;1.68;61.81;97934.13;299417;246;63005;-53
2021/02/15 15:56:56;;;;;;;0.70;0.70;;;;;;;1.53;64.03;97935.41;299395;215;63008;-53
2021/02/15 16:01:57;;;;;;;0.80;0.80;;;;;;;1.42;67.69;97925.34;299395;251;63010;-59
2021/02/15 16:06:58;;;;;;;0.80;0.80;;;;;;;1.17;70.33;97912.63;299395;206;63018;-55
2021/02/15 16:12:02;;;;;;;0.80;0.80;;;;;;;1.23;71.65;97892.28;299395;262;63005;-56
2021/02/15 16:17:03;;;;;;;0.80;0.80;;;;;;;1.10;74.35;97871.72;299395;199;63009;-56
2021/02/15 16:22:05;;;;;;;0.80;0.80;;;;;;;1.05;75.68;97860.84;299395;264;63005;-56
2021/02/15 16:27:06;;;;;;;0.80;0.80;;;;;;;0.91;76.13;97872.59;299395;219;63009;-57
2021/02/15 16:32:08;;;;;;;0.80;0.80;;;;;;;0.84;75.62;97863.75;299395;214;63004;-56
2021/02/15 16:37:09;;;;;;;0.80;0.80;;;;;;;0.80;76.33;97870.53;299395;284;63009;-55
2021/02/15 16:42:10;;;;;;;0.80;0.80;;;;;;;0.80;77.64;97857.19;299395;205;63005;-54
2021/02/15 16:47:11;;;;;;;0.70;0.70;;;;;;;0.91;76.90;97851.22;299395;196;63009;-56
2021/02/15 16:52:12;;;;;;;0.80;0.80;;;;;;;0.78;77.38;97881.44;299395;241;63005;-55
2021/02/15 16:57:13;;;;;;;0.80;0.80;;;;;;;0.66;78.02;97859.06;299395;263;63019;-56
2021/02/15 17:02:17;;;;;;;0.80;0.80;;;;;;;0.81;78.78;97797.38;299395;275;63004;-56
2021/02/15 17:07:18;;;;;;;0.80;0.80;;;;;;;0.69;79.35;97777.69;299417;286;63019;-56
2021/02/15 17:12:19;;;;;;;0.80;0.80;;;;;;;0.57;78.99;97783.66;299395;238;63022;-56
2021/02/15 17:17:20;;;;;;;0.80;0.80;;;;;;;0.48;80.59;97802.78;299395;231;63009;-55
2021/02/15 17:22:21;;;;;;;0.80;0.80;;;;;;;0.56;80.10;97800.72;299395;206;63011;-56
2021/02/15 17:27:22;;;;;;;0.80;0.80;;;;;;;0.60;80.71;97817.97;299395;203;63009;-55
2021/02/15 17:32:23;;;;;;;0.80;0.80;;;;;;;0.56;80.48;97837.28;299395;213;63008;-56
2021/02/15 17:37:24;;;;;;;0.90;0.90;;;;;;;0.49;80.56;97823.94;299395;247;63009;-55
2021/02/15 17:42:25;;;;;;;0.80;0.80;;;;;;;0.52;80.52;97812.84;299395;209;63005;-55
2021/02/15 17:47:27;;;;;;;0.80;0.80;;;;;;;0.50;80.80;97812.22;299395;217;63009;-54
2021/02/15 17:52:28;;;;;;;0.80;0.80;;;;;;;0.63;80.83;97817.56;299395;217;63005;-55
2021/02/15 17:57:29;;;;;;;0.90;0.90;;;;;;;0.65;81.17;97820.84;299394;209;64009;-54
2021/02/15 18:02:30;;;;;;;0.80;0.80;;;;;;;0.71;80.84;97818.34;299395;220;63004;-54
2021/02/15 18:07:32;;;;;;;0.80;0.80;;;;;;;0.77;79.48;97817.53;299395;214;63009;-56
2021/02/15 18:12:34;;;;;;;0.90;0.90;;;;;;;0.69;79.86;97820.44;299395;222;63005;-56
2021/02/15 18:17:35;;;;;;;0.90;0.90;;;;;;;0.73;81.36;97837.66;299395;236;63009;-55
2021/02/15 18:22:36;;;;;;;0.80;0.80;;;;;;;0.65;81.01;97836.87;299395;202;63005;-55
2021/02/15 18:27:37;;;;;;;0.80;0.80;;;;;;;0.85;80.13;97841.34;299395;224;63009;-56
2021/02/15 18:32:38;;;;;;;0.80;0.80;;;;;;;0.73;80.40;97833.12;299394;208;64004;-57
2021/02/15 18:37:40;;;;;;;0.80;0.80;;;;;;;0.75;79.60;97838.28;299395;312;63009;-55
2021/02/15 18:42:42;;;;;;;0.80;0.80;;;;;;;0.81;79.69;97824.09;299395;198;63005;-54
2021/02/15 18:47:46;;;;;;;0.80;0.80;;;;;;;0.81;79.69;97808.06;299395;202;63009;-53
2021/02/15 18:52:46;;;;;;;0.80;0.80;;;;;;;1.09;78.19;97805.94;299395;196;63005;-53
2021/02/15 18:57:48;;;;;;;0.70;0.70;;;;;;;0.98;78.19;97814.63;299395;261;63009;-53
2021/02/15 19:08:02;;;;;;;0.80;0.80;;;;;;;1.07;76.99;97802.66;299395;201;63008;-53
2021/02/15 19:13:37;;;;;;;0.80;0.80;;;;;;;1.19;76.33;97795.63;299417;295;63005;-53
2021/02/15 19:18:38;;;;;;;0.80;0.80;;;;;;;1.22;75.41;97792.53;299417;219;63008;-52
2021/02/15 19:23:43;;;;;;;0.80;0.80;;;;;;;1.27;74.88;97782.03;299395;207;63004;-51
2021/02/15 19:28:44;;;;;;;0.73;0.73;;;;;;;1.40;74.81;97772.28;299417;238;63019;-52
2021/02/15 19:33:47;;;;;;;0.80;0.80;;;;;;;1.43;74.18;97774.53;299395;210;63005;-53
2021/02/15 19:44:13;;;;;;;0.80;0.80;;;;;;;1.48;73.90;97766.69;299395;206;63004;-52
2021/02/15 19:49:14;;;;;;;0.80;0.80;;;;;;;1.41;74.45;97756.03;299395;220;63009;-52
2021/02/15 19:54:15;;;;;;;0.70;0.70;;;;;;;1.50;73.66;97757.44;299395;196;63004;-52
2021/02/15 19:59:16;;;;;;;1.00;1.00;;;;;;;1.61;73.20;97763.97;299395;196;63009;-52
2021/02/15 20:04:17;;;;;;;0.70;0.70;;;;;;;1.67;72.45;97749.75;299395;253;63005;-62
2021/02/15 20:09:18;;;;;;;0.80;0.80;;;;;;;1.70;72.52;97760.00;299395;203;63009;-52
2021/02/15 20:14:19;;;;;;;0.80;0.80;;;;;;;1.73;72.78;97753.41;299395;230;63004;-62
2021/02/15 20:19:21;;;;;;;0.70;0.70;;;;;;;1.70;73.03;97749.31;299395;203;63009;-60
2021/02/15 20:24:23;;;;;;;0.80;0.80;;;;;;;1.71;72.85;97734.91;299395;263;63004;-61
2021/02/15 20:29:24;;;;;;;0.80;0.80;;;;;;;1.73;72.60;97748.88;299395;196;63009;-53
2021/02/15 20:34:25;;;;;;;0.80;0.80;;;;;;;1.70;72.92;97743.97;299395;206;63015;-53
2021/02/15 20:39:26;;;;;;;0.80;0.80;;;;;;;1.67;73.14;97739.03;299395;204;63008;-52
2021/02/15 20:44:33;;;;;;;0.80;0.80;;;;;;;1.67;73.00;97739.84;299395;196;63009;-59
2021/02/15 20:49:35;;;;;;;0.80;0.80;;;;;;;1.65;72.79;97733.91;299395;208;63009;-52
2021/02/15 20:54:36;;;;;;;0.80;0.80;;;;;;;1.68;72.16;97727.31;299396;202;63007;-63
2021/02/15 20:59:37;;;;;;;0.75;0.75;;;;;;;1.70;72.60;97733.25;299396;204;63009;-54
2021/02/15 21:04:41;;;;;;;0.70;0.70;;;;;;;1.70;71.88;97727.91;299396;234;63007;-65
2021/02/15 21:09:44;;;;;;;0.70;0.70;;;;;;;1.73;71.80;97732.84;299440;203;63008;-54
2021/02/15 21:14:45;;;;;;;0.77;0.77;;;;;;;1.63;72.36;97737.81;299396;202;63004;-53
2021/02/15 21:19:46;;;;;;;0.80;0.80;;;;;;;1.62;72.63;97739.69;299396;237;63009;-58
2021/02/15 21:24:48;;;;;;;0.80;0.80;;;;;;;1.59;72.64;97731.25;299396;196;63004;-54
2021/02/15 21:29:49;;;;;;;0.85;0.85;;;;;;;1.59;72.78;97733.94;299396;213;63009;-62
2021/02/15 21:34:50;;;;;;;0.80;0.80;;;;;;;1.75;72.38;97729.91;299396;244;63005;-62
2021/02/15 21:39:54;;;;;;;0.70;0.70;;;;;;;1.65;72.36;97735.75;299397;239;63021;-63
2021/02/15 21:44:55;;;;;;;0.80;0.80;;;;;;;1.67;72.19;97739.03;299397;223;63004;-54
2021/02/15 21:49:56;;;;;;;0.80;0.80;;;;;;;1.67;72.20;97739.03;299396;214;63009;-62
2021/02/15 21:54:57;;;;;;;0.80;0.80;;;;;;;1.75;71.95;97745.97;299396;224;63005;-54
2021/02/15 21:59:58;;;;;;;0.80;0.80;;;;;;;1.87;71.96;97750.41;299396;228;63009;-54
2021/02/15 22:04:59;;;;;;;0.80;0.80;;;;;;;1.88;72.04;97754.72;299396;222;63005;-54
2021/02/15 22:10:03;;;;;;;0.70;0.70;;;;;;;1.99;71.64;97750.56;299396;241;63008;-53
2021/02/15 22:15:06;;;;;;;0.80;0.80;;;;;;;1.99;71.68;97748.69;299418;242;63004;-54
2021/02/15 22:20:09;;;;;;;0.70;0.70;;;;;;;2.04;71.83;97755.25;299396;197;63009;-61
2021/02/15 22:25:10;;;;;;;0.70;0.70;;;;;;;2.15;72.00;97754.53;299396;215;63005;-53
2021/02/15 22:30:14;;;;;;;0.77;0.77;;;;;;;2.08;71.99;97753.78;299396;238;63009;-61
2021/02/15 22:35:15;;;;;;;0.70;0.70;;;;;;;2.19;72.42;97755.75;299397;210;63005;-60
2021/02/15 22:40:17;;;;;;;0.70;0.70;;;;;;;2.35;72.30;97755.19;299397;196;63005;-54
2021/02/15 22:45:18;;;;;;;0.70;0.70;;;;;;;2.39;72.52;97750.22;299394;215;63004;-53
2021/02/15 22:50:20;;;;;;;0.70;0.70;;;;;;;2.47;72.76;97758.78;299395;211;63009;-53
2021/02/15 22:55:21;;;;;;;0.80;0.80;;;;;;;2.64;73.18;97751.84;299394;260;63005;-53
2021/02/15 23:00:23;;;;;;;0.80;0.80;;;;;;;2.82;73.05;97752.87;299395;255;63017;-52
2021/02/15 23:05:24;;;;;;;0.70;0.70;;;;;;;2.89;73.42;97753.63;299395;287;63004;-58
2021/02/15 23:10:29;;;;;;;0.75;0.75;;;;;;;2.76;73.76;97757.28;299395;224;63009;-53
2021/02/15 23:15:33;;;;;;;;;;;;;;;2.59;74.19;97764.25;299996;983;6000;-54
2021/02/15 23:20:38;;;;;;;0.70;0.70;;;;;;;2.55;74.65;97763.88;299400;251;63004;-53
2021/02/15 23:25:39;;;;;;;0.70;0.70;;;;;;;2.50;74.92;97755.66;299395;197;63009;-53
2021/02/15 23:30:40;;;;;;;0.70;0.70;;;;;;;2.47;75.75;97758.78;299395;252;63004;-61
2021/02/15 23:35:43;;;;;;;0.70;0.70;;;;;;;2.49;76.25;97754.03;299395;199;63009;-58
2021/02/15 23:40:44;;;;;;;0.70;0.70;;;;;;;2.53;75.76;97755.22;299395;349;63009;-59
2021/02/15 23:45:46;;;;;;;0.70;0.70;;;;;;;2.60;76.44;97753.31;299395;206;63008;-53
2021/02/15 23:50:47;;;;;;;0.80;0.80;;;;;;;2.65;77.56;97758.84;299395;271;63004;-54
2021/02/15 23:55:48;;;;;;;0.88;0.88;;;;;;;2.85;78.25;97763.16;299395;230;63009;-53
